sensor_id;sensor_type;location;lat;lon;timestamp;pressure;altitude;pressure_sealevel;temperature;humidity
16461;BME280;8341;42.048;24.650;2023-07-28T00:00:43;97231.13;;;20.32;48.94
16461;BME280;8341;42.048;24.650;2023-07-28T00:03:10;97229.88;;;20.20;48.86
16461;BME280;8341;42.048;24.650;2023-07-28T00:05:37;97207.56;;;20.05;48.83
16461;BME280;8341;42.048;24.650;2023-07-28T00:08:04;97210.94;;;20.11;49.15
16461;BME280;8341;42.048;24.650;2023-07-28T00:10:31;97160.13;;;19.75;49.09
16461;BME280;8341;42.048;24.650;2023-07-28T00:12:58;97250.13;;;20.28;48.90
16461;BME280;8341;42.048;24.650;2023-07-28T00:15:28;97242.88;;;20.25;49.10
16461;BME280;8341;42.048;24.650;2023-07-28T00:17:54;97224.03;;;20.11;49.56
16461;BME280;8341;42.048;24.650;2023-07-28T00:20:21;97237.13;;;20.23;49.34
16461;BME280;8341;42.048;24.650;2023-07-28T00:22:48;97156.22;;;19.70;49.55
16461;BME280;8341;42.048;24.650;2023-07-28T00:25:15;97233.91;;;20.19;49.16
16461;BME280;8341;42.048;24.650;2023-07-28T00:27:41;97188.00;;;19.90;49.40
16461;BME280;8341;42.048;24.650;2023-07-28T00:30:10;97217.22;;;20.12;49.42
16461;BME280;8341;42.048;24.650;2023-07-28T00:32:39;97231.81;;;20.25;49.37
16461;BME280;8341;42.048;24.650;2023-07-28T00:35:06;97234.78;;;20.27;49.14
16461;BME280;8341;42.048;24.650;2023-07-28T00:37:33;97215.59;;;20.16;49.00
16461;BME280;8341;42.048;24.650;2023-07-28T00:40:00;97233.28;;;20.26;48.43
16461;BME280;8341;42.048;24.650;2023-07-28T00:42:27;97235.91;;;20.32;48.66
16461;BME280;8341;42.048;24.650;2023-07-28T00:44:53;97235.16;;;20.31;49.02
16461;BME280;8341;42.048;24.650;2023-07-28T00:47:20;97233.78;;;20.38;48.64
16461;BME280;8341;42.048;24.650;2023-07-28T00:49:49;97230.25;;;20.37;48.92
16461;BME280;8341;42.048;24.650;2023-07-28T00:52:15;97208.34;;;20.26;48.51
16461;BME280;8341;42.048;24.650;2023-07-28T00:54:42;97228.56;;;20.34;48.09
16461;BME280;8341;42.048;24.650;2023-07-28T00:57:10;97221.13;;;20.29;48.38
16461;BME280;8341;42.048;24.650;2023-07-28T00:59:36;97202.09;;;20.13;48.59
16461;BME280;8341;42.048;24.650;2023-07-28T01:02:04;97207.75;;;20.07;48.37
16461;BME280;8341;42.048;24.650;2023-07-28T01:04:31;97227.81;;;20.34;48.67
16461;BME280;8341;42.048;24.650;2023-07-28T01:07:04;97234.84;;;20.35;48.39
16461;BME280;8341;42.048;24.650;2023-07-28T01:09:41;97201.25;;;20.05;48.40
16461;BME280;8341;42.048;24.650;2023-07-28T01:12:09;97206.47;;;20.08;48.73
16461;BME280;8341;42.048;24.650;2023-07-28T01:14:35;97204.25;;;20.07;48.61
16461;BME280;8341;42.048;24.650;2023-07-28T01:17:03;97221.00;;;20.22;48.74
16461;BME280;8341;42.048;24.650;2023-07-28T01:19:30;97216.91;;;20.15;48.73
16461;BME280;8341;42.048;24.650;2023-07-28T01:22:24;97215.81;;;20.18;48.74
16461;BME280;8341;42.048;24.650;2023-07-28T01:25:02;97210.28;;;20.18;48.27
16461;BME280;8341;42.048;24.650;2023-07-28T01:27:34;97217.28;;;20.19;48.84
16461;BME280;8341;42.048;24.650;2023-07-28T01:30:03;97217.50;;;20.21;48.37
16461;BME280;8341;42.048;24.650;2023-07-28T01:32:30;97222.94;;;20.14;48.79
16461;BME280;8341;42.048;24.650;2023-07-28T01:34:57;97220.19;;;20.14;48.67
16461;BME280;8341;42.048;24.650;2023-07-28T01:37:23;97229.03;;;20.12;48.56
16461;BME280;8341;42.048;24.650;2023-07-28T01:39:50;97227.22;;;20.15;48.85
16461;BME280;8341;42.048;24.650;2023-07-28T01:42:17;97205.66;;;20.00;48.43
16461;BME280;8341;42.048;24.650;2023-07-28T01:44:45;97198.22;;;19.95;48.66
16461;BME280;8341;42.048;24.650;2023-07-28T01:47:12;97225.44;;;20.04;48.64
16461;BME280;8341;42.048;24.650;2023-07-28T01:49:39;97207.59;;;19.92;48.50
16461;BME280;8341;42.048;24.650;2023-07-28T01:52:06;97220.09;;;20.06;48.44
16461;BME280;8341;42.048;24.650;2023-07-28T01:54:33;97214.47;;;19.98;48.80
16461;BME280;8341;42.048;24.650;2023-07-28T01:57:00;97225.63;;;20.06;48.68
16461;BME280;8341;42.048;24.650;2023-07-28T01:59:26;97221.91;;;20.04;48.06
16461;BME280;8341;42.048;24.650;2023-07-28T02:01:55;97222.25;;;20.00;48.12
16461;BME280;8341;42.048;24.650;2023-07-28T02:04:21;97233.09;;;19.98;47.86
16461;BME280;8341;42.048;24.650;2023-07-28T02:06:48;97227.56;;;19.98;48.20
16461;BME280;8341;42.048;24.650;2023-07-28T02:09:15;97202.59;;;19.77;48.09
16461;BME280;8341;42.048;24.650;2023-07-28T02:11:42;97225.88;;;19.95;48.10
16461;BME280;8341;42.048;24.650;2023-07-28T02:14:09;97209.06;;;19.80;47.27
16461;BME280;8341;42.048;24.650;2023-07-28T02:16:36;97234.72;;;19.93;47.77
16461;BME280;8341;42.048;24.650;2023-07-28T02:19:04;97236.22;;;19.94;47.68
16461;BME280;8341;42.048;24.650;2023-07-28T02:21:31;97223.56;;;19.86;47.92
16461;BME280;8341;42.048;24.650;2023-07-28T02:23:57;97229.53;;;19.90;48.09
16461;BME280;8341;42.048;24.650;2023-07-28T02:26:24;97225.47;;;19.91;47.62
16461;BME280;8341;42.048;24.650;2023-07-28T02:28:51;97223.75;;;19.88;47.65
16461;BME280;8341;42.048;24.650;2023-07-28T02:31:18;97227.81;;;19.87;47.27
16461;BME280;8341;42.048;24.650;2023-07-28T02:33:44;97224.50;;;19.88;47.18
16461;BME280;8341;42.048;24.650;2023-07-28T02:36:12;97226.31;;;19.86;47.08
16461;BME280;8341;42.048;24.650;2023-07-28T02:38:39;97226.53;;;19.88;47.20
16461;BME280;8341;42.048;24.650;2023-07-28T02:41:06;97231.34;;;19.87;46.44
16461;BME280;8341;42.048;24.650;2023-07-28T02:43:33;97234.41;;;19.84;46.38
16461;BME280;8341;42.048;24.650;2023-07-28T02:46:00;97232.06;;;19.88;46.56
16461;BME280;8341;42.048;24.650;2023-07-28T02:48:27;97220.03;;;19.85;46.75
16461;BME280;8341;42.048;24.650;2023-07-28T02:50:54;97228.56;;;19.87;46.48
16461;BME280;8341;42.048;24.650;2023-07-28T02:53:22;97227.38;;;19.83;46.86
16461;BME280;8341;42.048;24.650;2023-07-28T02:55:49;97229.09;;;19.86;46.62
16461;BME280;8341;42.048;24.650;2023-07-28T02:58:16;97231.66;;;19.84;46.90
16461;BME280;8341;42.048;24.650;2023-07-28T03:00:43;97227.63;;;19.85;47.07
16461;BME280;8341;42.048;24.650;2023-07-28T03:03:12;97233.47;;;19.81;46.85
16461;BME280;8341;42.048;24.650;2023-07-28T03:05:39;97221.53;;;19.73;46.83
16461;BME280;8341;42.048;24.650;2023-07-28T03:08:06;97236.97;;;19.82;46.35
16461;BME280;8341;42.048;24.650;2023-07-28T03:10:34;97235.69;;;19.83;46.78
16461;BME280;8341;42.048;24.650;2023-07-28T03:13:01;97233.78;;;19.78;46.53
16461;BME280;8341;42.048;24.650;2023-07-28T03:15:28;97235.28;;;19.79;46.48
16461;BME280;8341;42.048;24.650;2023-07-28T03:17:55;97238.25;;;19.81;46.01
16461;BME280;8341;42.048;24.650;2023-07-28T03:20:22;97245.28;;;19.82;45.90
16461;BME280;8341;42.048;24.650;2023-07-28T03:22:48;97241.22;;;19.70;46.06
16461;BME280;8341;42.048;24.650;2023-07-28T03:25:15;97243.13;;;19.75;45.95
16461;BME280;8341;42.048;24.650;2023-07-28T03:27:43;97239.50;;;19.80;45.83
16461;BME280;8341;42.048;24.650;2023-07-28T03:30:10;97236.25;;;19.68;45.16
16461;BME280;8341;42.048;24.650;2023-07-28T03:32:37;97245.91;;;19.75;45.78
16461;BME280;8341;42.048;24.650;2023-07-28T03:35:05;97229.75;;;19.66;45.44
16461;BME280;8341;42.048;24.650;2023-07-28T03:37:32;97251.88;;;19.79;45.43
16461;BME280;8341;42.048;24.650;2023-07-28T03:40:00;97254.44;;;19.77;45.46
16461;BME280;8341;42.048;24.650;2023-07-28T03:42:27;97254.44;;;19.77;44.97
16461;BME280;8341;42.048;24.650;2023-07-28T03:44:55;97257.72;;;19.75;44.94
16461;BME280;8341;42.048;24.650;2023-07-28T03:47:22;97257.41;;;19.66;44.70
16461;BME280;8341;42.048;24.650;2023-07-28T03:49:49;97264.09;;;19.57;44.30
16461;BME280;8341;42.048;24.650;2023-07-28T03:52:16;97273.72;;;19.69;44.34
16461;BME280;8341;42.048;24.650;2023-07-28T03:54:42;97267.09;;;19.72;44.25
16461;BME280;8341;42.048;24.650;2023-07-28T03:57:09;97253.91;;;19.52;44.05
16461;BME280;8341;42.048;24.650;2023-07-28T03:59:36;97269.13;;;19.72;43.82
16461;BME280;8341;42.048;24.650;2023-07-28T04:02:04;97266.56;;;19.74;43.63
16461;BME280;8341;42.048;24.650;2023-07-28T04:04:32;97274.66;;;19.72;43.72
16461;BME280;8341;42.048;24.650;2023-07-28T04:06:58;97281.34;;;19.76;43.36
16461;BME280;8341;42.048;24.650;2023-07-28T04:09:26;97276.13;;;19.73;43.17
16461;BME280;8341;42.048;24.650;2023-07-28T04:11:53;97281.25;;;19.69;43.09
16461;BME280;8341;42.048;24.650;2023-07-28T04:14:20;97283.56;;;19.52;42.77
16461;BME280;8341;42.048;24.650;2023-07-28T04:16:47;97282.34;;;19.21;43.38
16461;BME280;8341;42.048;24.650;2023-07-28T04:19:15;97276.19;;;19.28;43.23
16461;BME280;8341;42.048;24.650;2023-07-28T04:21:42;97290.22;;;19.30;43.45
16461;BME280;8341;42.048;24.650;2023-07-28T04:24:09;97264.38;;;19.27;43.76
16461;BME280;8341;42.048;24.650;2023-07-28T04:26:37;97279.44;;;19.45;42.95
16461;BME280;8341;42.048;24.650;2023-07-28T04:29:04;97283.47;;;19.57;43.49
16461;BME280;8341;42.048;24.650;2023-07-28T04:31:30;97276.13;;;19.47;42.77
16461;BME280;8341;42.048;24.650;2023-07-28T04:33:57;97286.56;;;19.54;42.24
16461;BME280;8341;42.048;24.650;2023-07-28T04:36:25;97274.44;;;19.57;42.52
16461;BME280;8341;42.048;24.650;2023-07-28T04:38:52;97277.38;;;20.24;40.94
16461;BME280;8341;42.048;24.650;2023-07-28T04:41:19;97282.81;;;22.03;38.91
16461;BME280;8341;42.048;24.650;2023-07-28T04:43:46;97278.56;;;22.60;36.91
16461;BME280;8341;42.048;24.650;2023-07-28T04:46:13;97288.66;;;23.08;35.09
16461;BME280;8341;42.048;24.650;2023-07-28T04:48:40;97284.88;;;24.04;32.84
16461;BME280;8341;42.048;24.650;2023-07-28T04:51:07;97283.53;;;25.00;32.17
16461;BME280;8341;42.048;24.650;2023-07-28T04:53:35;97296.09;;;24.76;31.85
16461;BME280;8341;42.048;24.650;2023-07-28T04:56:02;97290.44;;;24.19;32.27
16461;BME280;8341;42.048;24.650;2023-07-28T04:58:29;97288.81;;;23.94;33.52
16461;BME280;8341;42.048;24.650;2023-07-28T05:00:56;97287.56;;;23.80;33.95
16461;BME280;8341;42.048;24.650;2023-07-28T05:03:23;97287.03;;;23.58;33.93
16461;BME280;8341;42.048;24.650;2023-07-28T05:05:50;97286.47;;;23.30;34.05
16461;BME280;8341;42.048;24.650;2023-07-28T05:08:16;97276.25;;;23.25;34.67
16461;BME280;8341;42.048;24.650;2023-07-28T05:10:45;97285.00;;;23.14;35.36
16461;BME280;8341;42.048;24.650;2023-07-28T05:13:11;97280.31;;;23.08;35.71
16461;BME280;8341;42.048;24.650;2023-07-28T05:15:38;97291.66;;;23.11;34.79
16461;BME280;8341;42.048;24.650;2023-07-28T05:18:05;97285.34;;;23.10;35.69
16461;BME280;8341;42.048;24.650;2023-07-28T05:20:32;97288.31;;;23.12;35.61
16461;BME280;8341;42.048;24.650;2023-07-28T05:22:59;97290.91;;;23.10;35.26
16461;BME280;8341;42.048;24.650;2023-07-28T05:25:26;97291.66;;;23.11;36.16
16461;BME280;8341;42.048;24.650;2023-07-28T05:27:54;97298.50;;;23.10;35.44
16461;BME280;8341;42.048;24.650;2023-07-28T05:30:21;97297.59;;;23.15;35.14
16461;BME280;8341;42.048;24.650;2023-07-28T05:32:48;97302.50;;;22.63;38.61
16461;BME280;8341;42.048;24.650;2023-07-28T05:35:15;97295.97;;;22.53;37.85
16461;BME280;8341;42.048;24.650;2023-07-28T05:37:41;97299.00;;;22.70;38.88
16461;BME280;8341;42.048;24.650;2023-07-28T05:40:10;97282.06;;;21.46;39.42
16461;BME280;8341;42.048;24.650;2023-07-28T05:42:37;97293.66;;;21.16;41.88
16461;BME280;8341;42.048;24.650;2023-07-28T05:45:06;97294.22;;;21.14;41.47
16461;BME280;8341;42.048;24.650;2023-07-28T05:47:33;97298.31;;;21.42;40.75
16461;BME280;8341;42.048;24.650;2023-07-28T05:50:00;97306.19;;;21.30;40.69
16461;BME280;8341;42.048;24.650;2023-07-28T05:52:27;97301.47;;;21.66;41.58
16461;BME280;8341;42.048;24.650;2023-07-28T05:54:54;97306.91;;;21.79;41.67
16461;BME280;8341;42.048;24.650;2023-07-28T05:57:21;97300.88;;;21.89;41.19
16461;BME280;8341;42.048;24.650;2023-07-28T05:59:48;97311.91;;;22.09;41.86
16461;BME280;8341;42.048;24.650;2023-07-28T06:02:16;97301.56;;;22.17;42.53
16461;BME280;8341;42.048;24.650;2023-07-28T06:04:43;97303.25;;;21.84;41.49
16461;BME280;8341;42.048;24.650;2023-07-28T06:07:10;97288.94;;;21.80;42.26
16461;BME280;8341;42.048;24.650;2023-07-28T06:09:37;97295.38;;;22.04;43.11
16461;BME280;8341;42.048;24.650;2023-07-28T06:12:05;97229.25;;;21.59;43.40
16461;BME280;8341;42.048;24.650;2023-07-28T06:14:32;97299.06;;;21.99;43.09
16461;BME280;8341;42.048;24.650;2023-07-28T06:16:58;97296.28;;;21.70;42.93
16461;BME280;8341;42.048;24.650;2023-07-28T06:19:27;97308.50;;;21.96;43.27
16461;BME280;8341;42.048;24.650;2023-07-28T06:21:53;97313.09;;;21.93;41.60
16461;BME280;8341;42.048;24.650;2023-07-28T06:24:20;97308.25;;;21.86;41.35
16461;BME280;8341;42.048;24.650;2023-07-28T06:26:47;97261.34;;;21.75;43.20
16461;BME280;8341;42.048;24.650;2023-07-28T06:29:15;97312.69;;;22.17;41.84
16461;BME280;8341;42.048;24.650;2023-07-28T06:31:42;97309.16;;;22.17;42.50
16461;BME280;8341;42.048;24.650;2023-07-28T06:34:09;97301.84;;;21.99;42.09
16461;BME280;8341;42.048;24.650;2023-07-28T06:36:37;97300.63;;;22.15;42.41
16461;BME280;8341;42.048;24.650;2023-07-28T06:39:04;97300.47;;;22.20;41.54
16461;BME280;8341;42.048;24.650;2023-07-28T06:41:31;97291.09;;;22.31;41.44
16461;BME280;8341;42.048;24.650;2023-07-28T06:43:57;97291.84;;;22.39;43.07
16461;BME280;8341;42.048;24.650;2023-07-28T06:46:24;97288.69;;;22.35;40.52
16461;BME280;8341;42.048;24.650;2023-07-28T06:48:51;97281.31;;;22.45;42.00
16461;BME280;8341;42.048;24.650;2023-07-28T06:51:18;97272.41;;;22.39;41.51
16461;BME280;8341;42.048;24.650;2023-07-28T06:53:46;97292.28;;;22.58;41.35
16461;BME280;8341;42.048;24.650;2023-07-28T06:56:14;97284.38;;;22.70;41.37
16461;BME280;8341;42.048;24.650;2023-07-28T06:58:40;97283.41;;;22.60;41.61
16461;BME280;8341;42.048;24.650;2023-07-28T07:01:07;97294.16;;;22.63;40.53
16461;BME280;8341;42.048;24.650;2023-07-28T07:03:36;97283.63;;;22.69;40.44
16461;BME280;8341;42.048;24.650;2023-07-28T07:06:03;97292.34;;;22.73;40.56
16461;BME280;8341;42.048;24.650;2023-07-28T07:08:30;97283.81;;;22.79;40.02
16461;BME280;8341;42.048;24.650;2023-07-28T07:10:58;97264.72;;;22.75;40.14
16461;BME280;8341;42.048;24.650;2023-07-28T07:13:25;97282.56;;;23.02;40.37
16461;BME280;8341;42.048;24.650;2023-07-28T07:15:52;97271.94;;;22.63;39.67
16461;BME280;8341;42.048;24.650;2023-07-28T07:18:19;97279.16;;;22.66;41.02
16461;BME280;8341;42.048;24.650;2023-07-28T07:20:46;97279.75;;;22.80;40.19
16461;BME280;8341;42.048;24.650;2023-07-28T07:23:13;97280.91;;;23.07;39.97
16461;BME280;8341;42.048;24.650;2023-07-28T07:25:40;97279.97;;;22.97;39.20
16461;BME280;8341;42.048;24.650;2023-07-28T07:28:08;97290.16;;;23.10;39.28
16461;BME280;8341;42.048;24.650;2023-07-28T07:30:35;97280.53;;;23.11;38.75
16461;BME280;8341;42.048;24.650;2023-07-28T07:33:02;97270.88;;;23.27;38.96
16461;BME280;8341;42.048;24.650;2023-07-28T07:35:29;97282.97;;;23.52;38.86
16461;BME280;8341;42.048;24.650;2023-07-28T07:37:55;97262.72;;;23.51;38.05
16461;BME280;8341;42.048;24.650;2023-07-28T07:40:22;97282.94;;;23.75;39.45
16461;BME280;8341;42.048;24.650;2023-07-28T07:42:49;97277.59;;;23.39;37.53
16461;BME280;8341;42.048;24.650;2023-07-28T07:45:18;97288.69;;;23.61;36.59
16461;BME280;8341;42.048;24.650;2023-07-28T07:47:45;97289.94;;;23.83;38.08
16461;BME280;8341;42.048;24.650;2023-07-28T07:50:12;97279.69;;;24.01;37.55
16461;BME280;8341;42.048;24.650;2023-07-28T07:52:40;97288.22;;;24.03;36.39
16461;BME280;8341;42.048;24.650;2023-07-28T07:55:08;97273.91;;;24.06;36.39
16461;BME280;8341;42.048;24.650;2023-07-28T07:57:36;97284.41;;;24.38;37.27
16461;BME280;8341;42.048;24.650;2023-07-28T08:00:03;97274.00;;;24.39;34.98
16461;BME280;8341;42.048;24.650;2023-07-28T08:02:32;97276.53;;;24.52;34.90
16461;BME280;8341;42.048;24.650;2023-07-28T08:04:59;97271.84;;;24.62;35.47
16461;BME280;8341;42.048;24.650;2023-07-28T08:07:26;97273.44;;;24.72;35.49
16461;BME280;8341;42.048;24.650;2023-07-28T08:09:53;97254.09;;;24.74;33.83
16461;BME280;8341;42.048;24.650;2023-07-28T08:12:20;97250.72;;;24.83;35.07
16461;BME280;8341;42.048;24.650;2023-07-28T08:14:46;97263.19;;;25.07;34.16
16461;BME280;8341;42.048;24.650;2023-07-28T08:17:13;97264.91;;;25.03;34.00
16461;BME280;8341;42.048;24.650;2023-07-28T08:19:41;97262.59;;;25.33;33.84
16461;BME280;8341;42.048;24.650;2023-07-28T08:22:08;97267.22;;;25.38;32.72
16461;BME280;8341;42.048;24.650;2023-07-28T08:24:35;97263.41;;;25.68;33.15
16461;BME280;8341;42.048;24.650;2023-07-28T08:27:03;97257.34;;;25.62;32.91
16461;BME280;8341;42.048;24.650;2023-07-28T08:29:30;97263.69;;;25.80;32.54
16461;BME280;8341;42.048;24.650;2023-07-28T08:31:56;97252.34;;;25.95;32.71
16461;BME280;8341;42.048;24.650;2023-07-28T08:34:23;97253.91;;;25.88;33.18
16461;BME280;8341;42.048;24.650;2023-07-28T08:36:52;97253.00;;;26.03;31.90
16461;BME280;8341;42.048;24.650;2023-07-28T08:39:19;97251.16;;;25.64;31.19
16461;BME280;8341;42.048;24.650;2023-07-28T08:41:46;97244.44;;;25.67;30.38
16461;BME280;8341;42.048;24.650;2023-07-28T08:44:13;97198.91;;;25.74;30.17
16461;BME280;8341;42.048;24.650;2023-07-28T08:46:41;97246.34;;;25.98;30.96
16461;BME280;8341;42.048;24.650;2023-07-28T08:49:08;97248.53;;;26.00;30.72
16461;BME280;8341;42.048;24.650;2023-07-28T08:51:40;97239.44;;;26.17;30.14
16461;BME280;8341;42.048;24.650;2023-07-28T08:54:09;97238.34;;;26.29;31.22
16461;BME280;8341;42.048;24.650;2023-07-28T08:56:36;97241.44;;;26.33;30.23
16461;BME280;8341;42.048;24.650;2023-07-28T08:59:03;97236.00;;;26.35;30.37
16461;BME280;8341;42.048;24.650;2023-07-28T09:01:30;97242.41;;;26.45;29.29
16461;BME280;8341;42.048;24.650;2023-07-28T09:03:57;97229.84;;;26.63;28.73
16461;BME280;8341;42.048;24.650;2023-07-28T09:06:28;97230.06;;;26.48;28.39
16461;BME280;8341;42.048;24.650;2023-07-28T09:08:56;97223.22;;;26.86;28.72
16461;BME280;8341;42.048;24.650;2023-07-28T09:11:25;97219.06;;;26.87;27.05
16461;BME280;8341;42.048;24.650;2023-07-28T09:13:54;97221.56;;;27.19;28.38
16461;BME280;8341;42.048;24.650;2023-07-28T09:16:21;97210.81;;;26.89;27.63
16461;BME280;8341;42.048;24.650;2023-07-28T09:18:50;97225.00;;;26.91;26.39
16461;BME280;8341;42.048;24.650;2023-07-28T09:21:17;97220.84;;;26.92;28.03
16461;BME280;8341;42.048;24.650;2023-07-28T09:23:46;97211.00;;;26.91;26.72
16461;BME280;8341;42.048;24.650;2023-07-28T09:26:13;97203.00;;;27.23;28.10
16461;BME280;8341;42.048;24.650;2023-07-28T09:28:42;97206.59;;;27.43;27.25
16461;BME280;8341;42.048;24.650;2023-07-28T09:31:09;97183.44;;;27.43;28.00
16461;BME280;8341;42.048;24.650;2023-07-28T09:33:37;97200.25;;;27.52;26.16
16461;BME280;8341;42.048;24.650;2023-07-28T09:36:09;97200.88;;;27.70;26.39
16461;BME280;8341;42.048;24.650;2023-07-28T09:38:37;97187.59;;;27.70;25.83
16461;BME280;8341;42.048;24.650;2023-07-28T09:41:07;97196.72;;;27.71;25.92
16461;BME280;8341;42.048;24.650;2023-07-28T09:43:36;97200.50;;;27.37;25.48
16461;BME280;8341;42.048;24.650;2023-07-28T09:46:05;97191.88;;;27.52;26.44
16461;BME280;8341;42.048;24.650;2023-07-28T09:48:33;97190.09;;;27.66;26.51
16461;BME280;8341;42.048;24.650;2023-07-28T09:51:03;97184.63;;;27.59;24.99
16461;BME280;8341;42.048;24.650;2023-07-28T09:53:36;97190.53;;;27.63;25.83
16461;BME280;8341;42.048;24.650;2023-07-28T09:56:06;97187.44;;;27.68;25.69
16461;BME280;8341;42.048;24.650;2023-07-28T09:58:37;97173.16;;;27.83;26.89
16461;BME280;8341;42.048;24.650;2023-07-28T10:01:09;97178.28;;;27.58;25.19
16461;BME280;8341;42.048;24.650;2023-07-28T10:03:37;97143.63;;;27.63;27.43
16461;BME280;8341;42.048;24.650;2023-07-28T10:06:04;97167.09;;;27.77;25.70
16461;BME280;8341;42.048;24.650;2023-07-28T10:08:32;97165.88;;;28.00;25.14
16461;BME280;8341;42.048;24.650;2023-07-28T10:10:59;97154.97;;;27.84;24.88
16461;BME280;8341;42.048;24.650;2023-07-28T10:13:27;97167.09;;;27.77;24.60
16461;BME280;8341;42.048;24.650;2023-07-28T10:15:54;97166.78;;;28.02;24.38
16461;BME280;8341;42.048;24.650;2023-07-28T10:18:25;97164.41;;;28.18;24.09
16461;BME280;8341;42.048;24.650;2023-07-28T10:20:52;97161.00;;;28.19;24.57
16461;BME280;8341;42.048;24.650;2023-07-28T10:23:20;97156.13;;;28.29;24.63
16461;BME280;8341;42.048;24.650;2023-07-28T10:25:55;97137.44;;;28.53;24.37
16461;BME280;8341;42.048;24.650;2023-07-28T10:28:27;97148.84;;;28.76;24.45
16461;BME280;8341;42.048;24.650;2023-07-28T10:30:57;97141.22;;;28.98;23.08
16461;BME280;8341;42.048;24.650;2023-07-28T10:33:31;97139.53;;;28.83;22.36
16461;BME280;8341;42.048;24.650;2023-07-28T10:35:59;97139.53;;;28.83;22.53
16461;BME280;8341;42.048;24.650;2023-07-28T10:38:33;97143.78;;;28.84;23.13
16461;BME280;8341;42.048;24.650;2023-07-28T10:41:11;97139.81;;;29.08;23.37
16461;BME280;8341;42.048;24.650;2023-07-28T10:43:39;97132.13;;;29.09;22.67
16461;BME280;8341;42.048;24.650;2023-07-28T10:46:08;97143.69;;;29.03;22.15
16461;BME280;8341;42.048;24.650;2023-07-28T10:48:41;97137.13;;;29.10;22.25
16461;BME280;8341;42.048;24.650;2023-07-28T10:51:09;97111.03;;;28.77;22.79
16461;BME280;8341;42.048;24.650;2023-07-28T10:53:37;97123.63;;;28.97;21.82
16461;BME280;8341;42.048;24.650;2023-07-28T10:56:05;97126.31;;;28.95;22.63
16461;BME280;8341;42.048;24.650;2023-07-28T10:58:34;97119.72;;;29.33;23.11
16461;BME280;8341;42.048;24.650;2023-07-28T11:01:01;97121.66;;;29.31;22.29
16461;BME280;8341;42.048;24.650;2023-07-28T11:03:28;97109.50;;;29.38;21.13
16461;BME280;8341;42.048;24.650;2023-07-28T11:05:57;97108.25;;;29.62;23.06
16461;BME280;8341;42.048;24.650;2023-07-28T11:08:25;97109.44;;;29.80;23.07
16461;BME280;8341;42.048;24.650;2023-07-28T11:10:52;97100.66;;;29.97;22.17
16461;BME280;8341;42.048;24.650;2023-07-28T11:13:19;97108.06;;;30.14;22.69
16461;BME280;8341;42.048;24.650;2023-07-28T11:15:45;97105.53;;;29.85;20.97
16461;BME280;8341;42.048;24.650;2023-07-28T11:18:15;97100.25;;;29.47;21.20
16461;BME280;8341;42.048;24.650;2023-07-28T11:20:42;97111.78;;;29.30;21.19
16461;BME280;8341;42.048;24.650;2023-07-28T11:23:13;97107.53;;;29.19;21.40
16461;BME280;8341;42.048;24.650;2023-07-28T11:25:42;97099.31;;;29.33;22.08
16461;BME280;8341;42.048;24.650;2023-07-28T11:28:09;97097.69;;;29.51;22.35
16461;BME280;8341;42.048;24.650;2023-07-28T11:30:37;97093.75;;;29.44;21.17
16461;BME280;8341;42.048;24.650;2023-07-28T11:33:08;97098.16;;;29.05;22.26
16461;BME280;8341;42.048;24.650;2023-07-28T11:35:37;97085.00;;;29.29;22.16
16461;BME280;8341;42.048;24.650;2023-07-28T11:38:03;97094.91;;;29.30;21.58
16461;BME280;8341;42.048;24.650;2023-07-28T11:40:33;97089.13;;;29.49;21.20
16461;BME280;8341;42.048;24.650;2023-07-28T11:43:00;97078.97;;;29.44;21.50
16461;BME280;8341;42.048;24.650;2023-07-28T11:45:29;97057.72;;;29.20;21.96
16461;BME280;8341;42.048;24.650;2023-07-28T11:47:57;97074.41;;;29.71;22.16
16461;BME280;8341;42.048;24.650;2023-07-28T11:50:26;97068.63;;;30.02;22.51
16461;BME280;8341;42.048;24.650;2023-07-28T11:52:53;97060.00;;;29.77;21.25
16461;BME280;8341;42.048;24.650;2023-07-28T11:55:21;97065.13;;;29.69;21.70
16461;BME280;8341;42.048;24.650;2023-07-28T11:57:51;97071.50;;;29.37;21.90
16461;BME280;8341;42.048;24.650;2023-07-28T12:00:19;97074.63;;;29.64;21.82
16461;BME280;8341;42.048;24.650;2023-07-28T12:03:00;97040.91;;;29.64;22.11
16461;BME280;8341;42.048;24.650;2023-07-28T12:05:27;97060.06;;;29.56;21.76
16461;BME280;8341;42.048;24.650;2023-07-28T12:07:54;97046.16;;;29.58;21.76
16461;BME280;8341;42.048;24.650;2023-07-28T12:10:21;97052.66;;;29.60;22.47
16461;BME280;8341;42.048;24.650;2023-07-28T12:12:51;97041.38;;;30.05;22.28
16461;BME280;8341;42.048;24.650;2023-07-28T12:15:19;97050.91;;;30.00;22.64
16461;BME280;8341;42.048;24.650;2023-07-28T12:18:01;97047.78;;;29.72;21.28
16461;BME280;8341;42.048;24.650;2023-07-28T12:20:33;97045.16;;;29.86;21.35
16461;BME280;8341;42.048;24.650;2023-07-28T12:23:00;97037.72;;;29.91;22.83
16461;BME280;8341;42.048;24.650;2023-07-28T12:25:27;97040.31;;;30.21;23.13
16461;BME280;8341;42.048;24.650;2023-07-28T12:27:56;97014.59;;;29.81;21.27
16461;BME280;8341;42.048;24.650;2023-07-28T12:30:23;97034.66;;;30.10;21.83
16461;BME280;8341;42.048;24.650;2023-07-28T12:32:49;97021.22;;;30.08;21.77
16461;BME280;8341;42.048;24.650;2023-07-28T12:35:16;97020.25;;;30.38;22.72
16461;BME280;8341;42.048;24.650;2023-07-28T12:37:44;97024.88;;;30.34;20.93
16461;BME280;8341;42.048;24.650;2023-07-28T12:40:11;97016.59;;;30.48;22.07
16461;BME280;8341;42.048;24.650;2023-07-28T12:42:39;97021.72;;;30.16;21.02
16461;BME280;8341;42.048;24.650;2023-07-28T12:45:08;97014.34;;;30.00;21.55
16461;BME280;8341;42.048;24.650;2023-07-28T12:47:36;97016.06;;;29.93;20.87
16461;BME280;8341;42.048;24.650;2023-07-28T12:50:04;97008.22;;;29.80;21.83
16461;BME280;8341;42.048;24.650;2023-07-28T12:52:32;97007.75;;;29.95;21.45
16461;BME280;8341;42.048;24.650;2023-07-28T12:54:58;96998.22;;;30.23;21.71
16461;BME280;8341;42.048;24.650;2023-07-28T12:57:25;96994.31;;;30.28;21.87
16461;BME280;8341;42.048;24.650;2023-07-28T12:59:52;96994.56;;;30.44;22.99
16461;BME280;8341;42.048;24.650;2023-07-28T13:02:20;96982.94;;;30.50;22.64